Portada
METAR-TAF:

METAR-TAF

Aeroports :

Vandenberg Airport

Tampa, Florida, Estats Units d'Amèrica

latitud: 28-00-50N, longitud: 082-20-43W, altitud: 7 m

Observació

L'informe es va fer fa 28 minuts, a les 15:35 UTC
Vent 4 kt del Est/Sud-Est
Temperatura 32°C
Humitat 71%
Pressió 1018 hPa
Visibilitat: 16.1 km
Cel ennuvolat a una alçada de 2900 ft

METAR: KVDF 221535Z AUTO 11004KT 10SM BKN029 32/26 A3007 RMK AO2

Hora: 12:03 (16:03 UTC)


TAF: manca

Observacions i pronòstics meteorològics de més de 4000 aeroports (METAR i TAF).

Les estacions disponibles són els punts grocs i vermells al mapa.

Posi el ratolí al punt desitjat per veure el nom de l'estació.

Feu clic per veure les observacions i els pronòstics meteorològics.

Per canviar el mapa: feu clic els botons verds amb una creu de color negre per apropar; al botó verd amb un guió per allunyar la imatge; o en les fletxes verdes per a mapes adjacents.


METAR-TAF: